Time;durP1;ratioP1;P1;durP2;ratioP2;P2;SDS_P1;SDS_P2;PMS_P1;PMS_P2;Temp;Humidity;BMP_temperature;BMP_pressure;BME280_temperature;BME280_humidity;BME280_pressure;Samples;Min_cycle;Max_cycle;Signal;HPM_P1;HPM_P2
2023/05/07 00:02:11;;;;;;;14.80;8.85;;;;;;;21.87;63.45;98070.44;4441077;32;20097;-81
2023/05/07 00:04:38;;;;;;;16.17;9.27;;;;;;;21.75;63.36;98062.81;4440623;32;20159;-81
2023/05/07 00:07:05;;;;;;;14.50;8.85;;;;;;;22.61;58.89;98069.09;4441024;32;20100;-81
2023/05/07 00:09:33;;;;;;;14.95;8.85;;;;;;;22.55;58.70;98069.66;4441124;32;20138;-81
2023/05/07 00:12:00;;;;;;;16.40;9.45;;;;;;;21.70;61.07;98067.66;4440622;32;20093;-81
2023/05/07 00:14:27;;;;;;;21.08;9.73;;;;;;;21.22;62.63;98070.88;4440890;32;20105;-81
2023/05/07 00:16:54;;;;;;;19.45;9.63;;;;;;;21.13;62.84;98071.66;4440951;32;20100;-81
2023/05/07 00:19:20;;;;;;;18.27;9.98;;;;;;;21.12;63.15;98068.22;4440561;32;20140;-81
2023/05/07 00:21:48;;;;;;;15.18;9.10;;;;;;;21.43;62.86;98061.19;4440851;32;20097;-81
2023/05/07 00:24:15;;;;;;;14.87;8.27;;;;;;;21.70;61.58;98065.84;4440837;32;20158;-81
2023/05/07 00:26:42;;;;;;;14.93;8.40;;;;;;;22.60;56.45;98070.06;4440599;32;20133;-81
2023/05/07 00:29:08;;;;;;;14.68;7.85;;;;;;;21.95;58.76;98070.59;4440851;32;20424;-81
2023/05/07 00:31:35;;;;;;;14.30;8.57;;;;;;;21.02;61.21;98068.16;4440859;32;20650;-81
2023/05/07 00:34:03;;;;;;;14.63;8.35;;;;;;;21.07;61.13;98067.78;4440470;32;20098;-81
2023/05/07 00:36:30;;;;;;;14.23;8.43;;;;;;;21.12;60.45;98065.59;4440872;32;20086;-81
2023/05/07 00:39:00;;;;;;;13.50;7.82;;;;;;;21.65;58.15;98070.66;4440852;32;20085;-81
2023/05/07 00:41:27;;;;;;;16.42;8.90;;;;;;;21.19;59.12;98073.78;4440516;32;20380;-81
2023/05/07 00:43:54;;;;;;;13.50;7.72;;;;;;;20.98;60.37;98065.94;4440526;32;20163;-81
2023/05/07 00:46:21;;;;;;;13.55;7.60;;;;;;;21.62;56.88;98070.94;4440850;32;20081;-80
2023/05/07 00:48:49;;;;;;;13.75;7.57;;;;;;;21.19;57.75;98069.38;4440338;32;20077;-80
2023/05/07 00:51:17;;;;;;;13.35;7.32;;;;;;;20.48;59.83;98071.84;4440771;32;20153;-81
2023/05/07 00:53:45;;;;;;;14.35;8.00;;;;;;;20.55;59.86;98069.56;4440310;32;20162;-81
2023/05/07 00:56:12;;;;;;;18.23;9.15;;;;;;;20.16;61.05;98071.00;4440764;32;20098;-81
2023/05/07 00:58:39;;;;;;;21.52;9.18;;;;;;;19.64;62.62;98072.56;4440525;32;20085;-81
2023/05/07 01:01:06;;;;;;;14.85;7.70;;;;;;;19.83;62.98;98070.16;4440402;32;20112;-81
2023/05/07 01:03:33;;;;;;;15.00;8.05;;;;;;;20.58;60.62;98066.66;4440660;32;20542;-80
2023/05/07 01:06:01;;;;;;;14.70;7.70;;;;;;;19.94;62.74;98062.25;4440549;32;20150;-81
2023/05/07 01:08:29;;;;;;;14.38;7.68;;;;;;;20.35;60.77;98068.53;4440200;32;20089;-81
2023/05/07 01:10:57;;;;;;;12.73;7.05;;;;;;;19.99;61.39;98069.75;4440722;32;20097;-81
2023/05/07 01:13:24;;;;;;;13.57;7.87;;;;;;;20.54;59.38;98072.31;4426731;32;20101;-81
2023/05/07 01:15:51;;;;;;;14.60;7.97;;;;;;;19.60;62.46;98068.53;4426343;32;20093;-81
2023/05/07 01:18:18;;;;;;;14.07;7.80;;;;;;;19.82;61.90;98065.03;4426734;32;20077;-81
2023/05/07 01:20:45;;;;;;;12.98;7.20;;;;;;;19.50;62.95;98060.53;4426686;32;20475;-81
2023/05/07 01:23:12;;;;;;;14.38;8.02;;;;;;;19.34;63.98;98055.66;4440152;32;20101;-81
2023/05/07 01:25:39;;;;;;;13.80;8.43;;;;;;;19.11;65.31;98056.63;4426589;32;20432;-81
2023/05/07 01:28:06;;;;;;;15.07;8.55;;;;;;;19.11;65.71;98066.25;4439683;32;20416;-81
2023/05/07 01:30:34;;;;;;;15.25;7.70;;;;;;;19.76;64.13;98060.28;4440184;32;20112;-81
2023/05/07 01:33:06;;;;;;;14.43;8.15;;;;;;;19.84;62.79;98058.72;4426518;32;20368;-81
2023/05/07 01:35:45;;;;;;;14.15;8.30;;;;;;;19.81;62.09;98063.38;4440451;32;20085;-81
2023/05/07 01:38:12;;;;;;;13.73;7.68;;;;;;;19.60;62.91;98055.44;4426566;32;20081;-81
2023/05/07 01:40:39;;;;;;;15.50;8.45;;;;;;;19.68;62.04;98050.44;4426461;32;20422;-81
2023/05/07 01:43:06;;;;;;;16.50;9.15;;;;;;;19.93;61.27;98052.75;4439732;32;20124;-81
2023/05/07 01:45:34;;;;;;;17.05;9.30;;;;;;;19.78;62.58;98047.91;4426111;32;20768;-81
2023/05/07 01:48:02;;;;;;;16.90;9.70;;;;;;;20.27;61.23;98039.50;4426460;32;20077;-81
2023/05/07 01:50:30;;;;;;;17.48;10.23;;;;;;;20.00;62.85;98034.75;4439824;32;20503;-81
2023/05/07 01:52:57;;;;;;;16.05;9.23;;;;;;;18.74;67.51;98038.53;4426232;32;20128;-81
2023/05/07 01:55:24;;;;;;;16.00;9.77;;;;;;;19.51;64.95;98038.66;4426409;32;20161;-80
2023/05/07 01:57:51;;;;;;;16.12;9.13;;;;;;;19.22;66.64;98045.34;4439617;32;20151;-81
2023/05/07 02:00:18;;;;;;;15.70;9.40;;;;;;;19.90;65.09;98045.16;4440167;32;20578;-81
2023/05/07 02:02:46;;;;;;;16.00;9.13;;;;;;;19.43;66.50;98051.50;4439995;32;20102;-81
2023/05/07 02:05:13;;;;;;;16.55;9.60;;;;;;;18.84;67.86;98053.53;4439556;32;20214;-81
2023/05/07 02:07:40;;;;;;;16.90;9.70;;;;;;;18.49;68.48;98049.97;4439996;32;20085;-81
2023/05/07 02:10:07;;;;;;;15.57;9.32;;;;;;;17.46;75.12;98066.19;4439665;32;20097;-81
2023/05/07 02:12:34;;;;;;;14.18;8.38;;;;;;;18.73;67.29;98052.56;4439534;32;20093;-81
2023/05/07 02:15:01;;;;;;;14.85;8.05;;;;;;;18.91;65.49;98049.47;4439836;32;20437;-81
2023/05/07 02:17:31;;;;;;;16.95;8.63;;;;;;;18.86;64.50;98051.63;4439789;32;20082;-81
2023/05/07 02:19:59;;;;;;;17.40;8.95;;;;;;;18.96;64.11;98050.81;4439487;32;20127;-81
2023/05/07 02:22:26;;;;;;;15.45;8.55;;;;;;;19.40;62.63;98050.91;4439720;32;20101;-81
2023/05/07 02:24:53;;;;;;;14.60;7.87;;;;;;;19.34;62.98;98049.59;4439434;32;20090;-81
2023/05/07 02:27:20;;;;;;;15.93;7.78;;;;;;;19.14;63.97;98053.78;4439637;32;20108;-81
2023/05/07 02:29:47;;;;;;;15.70;8.68;;;;;;;19.46;62.81;98047.81;4439477;32;20120;-81
2023/05/07 02:32:13;;;;;;;15.70;8.50;;;;;;;19.55;61.17;98047.94;4439334;32;20109;-81
2023/05/07 02:34:41;;;;;;;15.35;8.40;;;;;;;19.30;62.38;98048.19;4439589;32;20135;-81
2023/05/07 02:37:07;;;;;;;17.95;9.93;;;;;;;18.86;64.15;98046.41;4439526;32;20073;-81
2023/05/07 02:39:34;;;;;;;17.52;9.48;;;;;;;19.81;60.51;98048.50;4440277;32;20169;-81
2023/05/07 02:42:02;;;;;;;18.12;10.48;;;;;;;19.73;61.02;98044.81;4441605;32;20175;-81
2023/05/07 02:44:31;;;;;;;18.15;10.27;;;;;;;18.88;64.67;98039.25;4441227;32;20081;-80
2023/05/07 02:46:58;;;;;;;18.95;9.93;;;;;;;19.50;62.99;98034.37;4441230;32;20081;-81
2023/05/07 02:49:25;;;;;;;17.12;9.77;;;;;;;19.69;62.18;98040.81;4441657;32;20101;-81
2023/05/07 02:51:51;;;;;;;17.10;9.18;;;;;;;19.26;63.44;98036.31;4441518;32;20162;-81
2023/05/07 02:54:18;;;;;;;17.02;8.75;;;;;;;19.05;64.94;98047.50;4441197;32;20542;-81
2023/05/07 02:56:45;;;;;;;12.82;7.37;;;;;;;19.46;62.43;98050.41;4441665;32;20478;-81
2023/05/07 02:59:12;;;;;;;13.52;7.28;;;;;;;19.46;58.50;98051.28;4441326;32;20737;-81
2023/05/07 03:01:39;;;;;;;12.35;6.70;;;;;;;18.83;60.17;98036.19;4441246;32;20522;-81
2023/05/07 03:04:06;;;;;;;14.40;7.85;;;;;;;18.91;60.13;98045.09;4441366;32;20161;-81
2023/05/07 03:06:33;;;;;;;15.00;7.85;;;;;;;18.13;62.86;98037.88;4441376;32;20092;-81
2023/05/07 03:09:00;;;;;;;13.50;7.45;;;;;;;18.15;62.84;98050.81;4441045;32;20093;-81
2023/05/07 03:11:27;;;;;;;14.68;7.53;;;;;;;18.23;62.64;98045.03;4441536;32;20102;-81
2023/05/07 03:13:54;;;;;;;14.10;7.78;;;;;;;18.36;62.05;98051.81;4441321;32;20093;-81
2023/05/07 03:16:21;;;;;;;14.73;7.57;;;;;;;18.86;60.45;98051.63;4441094;32;20112;-81
2023/05/07 03:18:48;;;;;;;13.25;7.07;;;;;;;18.31;62.01;98059.19;4441420;32;20080;-81
2023/05/07 03:21:15;;;;;;;14.38;6.82;;;;;;;18.72;60.95;98050.06;4441100;32;20373;-81
2023/05/07 03:23:42;;;;;;;14.57;7.55;;;;;;;18.34;62.20;98055.50;4427473;32;20086;-81
2023/05/07 03:26:08;;;;;;;15.70;8.27;;;;;;;18.94;60.63;98051.88;4441275;32;20109;-81
2023/05/07 03:28:36;;;;;;;14.55;7.70;;;;;;;18.74;62.32;98053.41;4440869;32;20128;-81
2023/05/07 03:31:03;;;;;;;14.80;7.45;;;;;;;19.06;61.82;98058.78;4427473;32;20120;-81
2023/05/07 03:33:32;;;;;;;13.18;6.95;;;;;;;18.98;61.03;98058.53;4441165;32;20176;-81
2023/05/07 03:35:59;;;;;;;12.68;6.90;;;;;;;19.02;60.11;98060.78;4440831;32;20111;-81
2023/05/07 03:38:26;;;;;;;15.05;6.90;;;;;;;18.95;60.10;98070.06;4441175;32;20442;-80
2023/05/07 03:40:53;;;;;;;14.60;7.37;;;;;;;18.73;60.61;98072.63;4441202;32;20405;-81
2023/05/07 03:43:20;;;;;;;14.60;6.90;;;;;;;18.53;61.79;98070.66;4440786;32;20081;-81
2023/05/07 03:45:47;;;;;;;13.15;7.05;;;;;;;18.26;61.97;98069.12;4440836;32;20329;-81
2023/05/07 03:48:13;;;;;;;16.17;8.00;;;;;;;17.91;64.20;98064.69;4441159;32;20107;-81
2023/05/07 03:50:41;;;;;;;15.50;8.20;;;;;;;18.03;64.75;98062.97;4440464;32;20334;-81
2023/05/07 03:53:08;;;;;;;14.40;7.75;;;;;;;19.11;61.35;98064.47;4441055;32;20093;-81
2023/05/07 03:55:35;;;;;;;14.55;8.05;;;;;;;18.66;64.37;98064.41;4441096;32;20552;-81
2023/05/07 03:58:02;;;;;;;13.73;7.57;;;;;;;19.54;60.46;98068.97;4440621;32;20101;-81
2023/05/07 04:00:33;;;;;;;15.57;7.15;;;;;;;18.94;63.15;98068.41;4441181;32;20093;-81
2023/05/07 04:03:00;;;;;;;13.48;7.32;;;;;;;18.66;65.12;98074.88;4441024;32;20089;-81
2023/05/07 04:05:27;;;;;;;13.38;7.40;;;;;;;19.34;62.87;98076.59;4440790;32;20483;-81
2023/05/07 04:07:54;;;;;;;13.90;7.70;;;;;;;19.72;60.60;98077.19;4440994;32;20481;-81
2023/05/07 04:10:21;;;;;;;13.85;7.18;;;;;;;19.20;63.28;98076.84;4440696;32;20521;-81
2023/05/07 04:12:48;;;;;;;14.75;7.28;;;;;;;19.54;62.96;98076.81;4440965;32;20089;-81
2023/05/07 04:15:15;;;;;;;12.40;6.78;;;;;;;19.26;65.26;98080.78;4440947;32;20089;-81
2023/05/07 04:17:42;;;;;;;12.30;6.72;;;;;;;19.56;65.78;98077.56;4440653;32;20171;-81
2023/05/07 04:20:10;;;;;;;13.10;6.80;;;;;;;19.85;63.61;98088.34;4440950;32;20097;-81
2023/05/07 04:22:37;;;;;;;13.55;7.25;;;;;;;19.92;62.74;98089.53;4440878;32;20440;-81
2023/05/07 04:25:04;;;;;;;15.15;7.37;;;;;;;19.66;62.91;98088.97;4440658;32;20085;-81
2023/05/07 04:27:32;;;;;;;14.55;7.40;;;;;;;20.19;62.05;98089.91;4440867;32;20092;-81
2023/05/07 04:30:00;;;;;;;14.90;7.22;;;;;;;19.96;63.12;98090.09;4440810;32;20097;-81
2023/05/07 04:32:28;;;;;;;14.13;7.80;;;;;;;20.64;60.29;98094.19;4440582;32;20093;-81
2023/05/07 04:34:56;;;;;;;17.10;8.25;;;;;;;19.86;63.85;98096.06;4440869;32;20081;-81
2023/05/07 04:37:25;;;;;;;16.02;8.35;;;;;;;20.13;63.77;98100.06;4440860;32;20093;-81
2023/05/07 04:39:52;;;;;;;14.00;8.00;;;;;;;20.27;63.77;98106.81;4440482;32;20097;-81
2023/05/07 04:42:19;;;;;;;15.13;8.07;;;;;;;20.27;63.17;98102.41;4440887;32;20100;-81
2023/05/07 04:44:46;;;;;;;14.87;7.93;;;;;;;20.56;62.67;98104.47;4440460;32;20099;-81
2023/05/07 04:47:13;;;;;;;14.30;7.25;;;;;;;20.88;61.70;98110.47;4440428;32;20230;-81
2023/05/07 04:49:40;;;;;;;14.13;6.90;;;;;;;20.55;62.95;98115.91;4440803;32;20501;-81
2023/05/07 04:52:06;;;;;;;12.05;6.72;;;;;;;20.47;62.83;98106.88;4440679;32;20462;-81
2023/05/07 04:54:33;;;;;;;14.27;7.20;;;;;;;20.38;63.71;98109.38;4440482;32;20462;-81
2023/05/07 04:57:00;;;;;;;12.77;7.10;;;;;;;20.88;62.51;98114.91;4440723;32;20085;-81
2023/05/07 04:59:27;;;;;;;13.13;6.82;;;;;;;20.90;62.02;98123.47;4440314;32;20097;-81
2023/05/07 05:01:54;;;;;;;12.93;6.97;;;;;;;20.86;62.55;98117.66;4439705;32;20078;-81
2023/05/07 05:04:22;;;;;;;14.82;7.25;;;;;;;20.91;61.79;98117.25;4440849;32;20089;-81
2023/05/07 05:06:49;;;;;;;12.80;6.50;;;;;;;21.36;59.22;98113.38;4440197;32;20113;-81
2023/05/07 05:09:16;;;;;;;12.20;6.70;;;;;;;21.42;58.62;98117.28;4440675;32;20108;-81
2023/05/07 05:11:43;;;;;;;12.65;6.82;;;;;;;21.23;59.26;98123.22;4440532;32;20557;-81
2023/05/07 05:14:10;;;;;;;13.52;6.90;;;;;;;20.99;60.57;98126.16;4440318;32;20068;-80
2023/05/07 05:16:37;;;;;;;12.30;7.05;;;;;;;21.35;59.61;98124.00;4440572;32;20105;-81
2023/05/07 05:19:04;;;;;;;11.90;6.87;;;;;;;21.52;58.98;98130.44;4440521;32;20097;-81
2023/05/07 05:21:31;;;;;;;13.00;6.75;;;;;;;21.02;61.49;98127.66;4440108;32;20085;-81
2023/05/07 05:23:58;;;;;;;13.23;6.87;;;;;;;21.00;61.88;98124.34;4440374;32;20073;-81
2023/05/07 05:26:25;;;;;;;12.98;7.65;;;;;;;20.76;63.21;98124.63;4426514;32;20163;-80
2023/05/07 05:28:52;;;;;;;13.00;6.35;;;;;;;20.97;63.46;98120.19;4439999;32;20089;-81
2023/05/07 05:31:19;;;;;;;13.35;6.78;;;;;;;20.92;64.23;98117.13;4440568;32;20077;-81
2023/05/07 05:33:46;;;;;;;12.32;7.12;;;;;;;21.44;63.26;98131.09;4440344;32;20103;-81
2023/05/07 05:36:13;;;;;;;11.95;6.53;;;;;;;22.21;60.06;98128.72;4440089;32;20410;-81
2023/05/07 05:38:40;;;;;;;13.52;6.97;;;;;;;21.44;63.51;98130.28;4440376;32;20174;-81
2023/05/07 05:41:07;;;;;;;14.25;6.87;;;;;;;21.95;61.69;98135.44;4440413;32;20081;-81
2023/05/07 05:43:34;;;;;;;10.50;5.93;;;;;;;22.19;60.26;98135.09;4439912;32;20146;-81
2023/05/07 05:46:01;;;;;;;12.70;6.25;;;;;;;22.10;60.42;98136.72;4439925;32;20112;-81
2023/05/07 05:48:29;;;;;;;11.43;6.40;;;;;;;22.49;58.92;98147.28;4439907;32;20138;-81
2023/05/07 05:50:56;;;;;;;13.15;6.68;;;;;;;22.09;60.39;98142.94;4426417;32;20115;-81
2023/05/07 05:53:23;;;;;;;12.68;6.40;;;;;;;21.92;61.45;98141.78;4440146;32;20111;-81
2023/05/07 05:55:50;;;;;;;14.57;6.40;;;;;;;22.21;60.38;98146.28;4439803;32;20096;-80
2023/05/07 05:58:16;;;;;;;11.38;6.35;;;;;;;22.59;58.67;98148.13;4440116;32;20102;-81
2023/05/07 06:00:44;;;;;;;11.40;5.97;;;;;;;22.55;58.96;98157.28;4440098;32;20100;-81
2023/05/07 06:03:11;;;;;;;13.32;6.72;;;;;;;22.51;59.88;98159.31;4439551;32;20065;-81
2023/05/07 06:05:40;;;;;;;11.70;6.28;;;;;;;22.36;60.51;98152.81;4439959;32;20479;-81
2023/05/07 06:08:07;;;;;;;11.20;6.30;;;;;;;22.52;60.39;98160.16;4440140;32;20459;-81
2023/05/07 06:10:38;;;;;;;12.02;6.28;;;;;;;22.56;60.76;98160.72;4439686;32;20134;-81
2023/05/07 06:13:05;;;;;;;11.52;6.45;;;;;;;22.77;60.10;98153.53;4440631;32;20073;-81
2023/05/07 06:15:32;;;;;;;12.95;7.40;;;;;;;23.25;58.50;98152.62;4441862;32;20142;-81
2023/05/07 06:17:59;;;;;;;11.75;6.47;;;;;;;23.06;60.11;98156.13;4441379;32;20090;-81
2023/05/07 06:20:26;;;;;;;13.18;6.72;;;;;;;22.91;61.39;98157.56;4441920;32;20199;-81
2023/05/07 06:22:53;;;;;;;11.88;6.87;;;;;;;22.90;62.12;98161.16;4441691;32;20149;-81
2023/05/07 06:25:20;;;;;;;11.90;6.30;;;;;;;23.26;61.62;98162.19;4441416;32;20428;-81
2023/05/07 06:27:46;;;;;;;11.55;6.40;;;;;;;23.59;60.71;98152.97;4441641;32;20094;-81
2023/05/07 06:30:14;;;;;;;11.35;5.90;;;;;;;24.02;58.42;98146.25;4441757;32;20089;-81
2023/05/07 06:32:41;;;;;;;10.52;5.78;;;;;;;24.32;55.78;98159.13;4441341;32;20073;-81
2023/05/07 06:35:08;;;;;;;10.10;5.22;;;;;;;24.33;56.08;98158.16;4441662;32;20116;-81
2023/05/07 06:37:38;;;;;;;10.30;5.22;;;;;;;24.95;54.46;98152.94;4441339;32;20463;-80
2023/05/07 06:40:06;;;;;;;9.45;4.10;;;;;;;25.40;51.37;98155.41;4441649;32;20085;-81
2023/05/07 06:42:33;;;;;;;9.82;4.93;;;;;;;25.87;48.56;98155.84;4441507;32;20412;-81
2023/05/07 06:45:00;;;;;;;10.98;4.12;;;;;;;25.76;50.61;98161.41;4441015;32;20103;-81
2023/05/07 06:47:26;;;;;;;9.50;4.43;;;;;;;26.21;48.03;98165.53;4441440;32;20136;-81
2023/05/07 06:49:53;;;;;;;6.97;3.50;;;;;;;26.41;47.54;98161.66;4441574;32;20094;-81
2023/05/07 06:52:20;;;;;;;9.95;4.05;;;;;;;26.23;46.90;98159.09;4441150;32;20084;-81
2023/05/07 06:54:47;;;;;;;6.68;3.45;;;;;;;26.70;47.05;98161.19;4441549;32;20111;-81
2023/05/07 06:57:14;;;;;;;7.43;3.62;;;;;;;26.65;47.35;98165.31;4441537;32;20089;-82
2023/05/07 06:59:41;;;;;;;7.00;3.40;;;;;;;27.05;46.28;98173.28;4441075;32;20162;-82
2023/05/07 07:02:08;;;;;;;6.47;3.20;;;;;;;27.40;45.52;98163.31;4441527;32;20538;-81
2023/05/07 07:04:35;;;;;;;5.90;2.67;;;;;;;28.03;43.21;98161.63;4441487;32;20097;-81
2023/05/07 07:07:02;;;;;;;3.60;2.22;;;;;;;28.26;41.71;98154.53;4441019;32;20116;-81
2023/05/07 07:09:29;;;;;;;5.37;2.60;;;;;;;28.14;40.19;98155.94;4441417;32;20100;-81
2023/05/07 07:11:56;;;;;;;4.43;1.92;;;;;;;29.17;38.91;98161.72;4435955;32;174100;-81
2023/05/07 07:14:22;;;;;;;4.12;1.80;;;;;;;28.84;38.47;98170.94;4441153;32;20428;-81
2023/05/07 07:16:49;;;;;;;2.83;1.55;;;;;;;26.74;40.19;98169.63;4441399;32;20433;-81
2023/05/07 07:19:16;;;;;;;3.30;1.70;;;;;;;26.47;41.35;98168.91;4441179;32;20157;-81
2023/05/07 07:21:44;;;;;;;4.87;2.10;;;;;;;24.51;48.44;98172.19;4441064;32;20120;-81
2023/05/07 07:24:13;;;;;;;2.25;1.50;;;;;;;24.05;49.16;98169.69;4440742;32;20133;-81
2023/05/07 07:26:40;;;;;;;1.92;1.48;;;;;;;24.34;46.17;98174.78;4440979;32;20097;-81
2023/05/07 07:29:07;;;;;;;3.65;1.77;;;;;;;24.58;47.27;98169.78;4441303;32;20104;-81
2023/05/07 07:31:33;;;;;;;6.00;1.83;;;;;;;24.66;45.17;98177.75;4441283;32;20108;-81
2023/05/07 07:34:00;;;;;;;5.72;1.90;;;;;;;23.37;50.34;98180.44;4440866;32;20077;-81
2023/05/07 07:36:27;;;;;;;3.45;1.73;;;;;;;23.42;49.48;98183.50;4441323;32;20093;-81
2023/05/07 07:39:11;;;;;;;3.03;1.60;;;;;;;22.52;54.85;98181.19;4441275;32;20384;-81
2023/05/07 07:41:38;;;;;;;3.87;1.70;;;;;;;23.12;52.88;98179.28;4440829;32;20089;-81
2023/05/07 07:44:07;;;;;;;6.00;1.90;;;;;;;23.44;51.71;98178.09;4441105;32;20101;-81
2023/05/07 07:46:34;;;;;;;2.40;1.42;;;;;;;24.08;51.08;98178.13;4441039;32;20182;-81
2023/05/07 07:49:01;;;;;;;4.47;1.60;;;;;;;24.20;50.21;98182.22;4440888;32;20160;-81
2023/05/07 07:51:28;;;;;;;3.40;1.62;;;;;;;24.43;48.42;98182.66;4441198;32;20099;-81
2023/05/07 07:53:57;;;;;;;4.15;1.70;;;;;;;24.45;46.57;98185.13;4441101;32;20090;-81
2023/05/07 07:56:24;;;;;;;5.80;1.90;;;;;;;25.49;47.09;98182.69;4440687;32;20457;-81
2023/05/07 07:58:51;;;;;;;3.70;1.87;;;;;;;25.02;48.46;98180.41;4441137;32;20401;-81
2023/05/07 08:01:18;;;;;;;7.18;1.70;;;;;;;24.65;49.73;98177.91;4441068;32;20459;-81
2023/05/07 08:03:45;;;;;;;2.80;1.55;;;;;;;23.81;50.17;98176.31;4440752;32;20116;-81
2023/05/07 08:06:12;;;;;;;4.45;2.00;;;;;;;23.44;50.42;98178.91;4440935;32;20102;-81
2023/05/07 08:08:40;;;;;;;4.03;2.00;;;;;;;24.47;49.36;98183.19;4441031;32;20154;-81
2023/05/07 08:11:07;;;;;;;5.12;2.03;;;;;;;24.50;50.54;98182.88;4440992;32;20095;-81
2023/05/07 08:13:34;;;;;;;4.72;2.20;;;;;;;23.69;50.60;98174.00;4440929;32;20156;-81
2023/05/07 08:16:01;;;;;;;4.43;2.15;;;;;;;24.36;48.51;98183.41;4440671;32;20125;-81
2023/05/07 08:18:28;;;;;;;4.12;2.20;;;;;;;24.65;48.79;98189.28;4440922;32;20154;-81
2023/05/07 08:20:55;;;;;;;4.53;1.90;;;;;;;23.78;50.51;98188.94;4440924;32;20361;-81
2023/05/07 08:23:22;;;;;;;5.40;2.12;;;;;;;25.47;46.12;98188.16;4440620;32;20093;-81
2023/05/07 08:25:49;;;;;;;5.85;2.20;;;;;;;25.21;47.84;98189.97;4440986;32;20445;-81
2023/05/07 08:28:16;;;;;;;5.25;2.20;;;;;;;25.88;44.85;98185.75;4440835;32;20104;-81
2023/05/07 08:30:43;;;;;;;5.65;2.00;;;;;;;26.00;45.35;98189.75;4440572;32;20431;-81
2023/05/07 08:33:10;;;;;;;3.78;1.87;;;;;;;24.16;48.98;98193.22;4440835;32;20090;-81
2023/05/07 08:35:37;;;;;;;6.10;1.90;;;;;;;24.62;48.65;98191.41;4440972;32;20097;-81
2023/05/07 08:38:04;;;;;;;4.03;1.90;;;;;;;25.60;46.15;98190.34;4440403;32;20108;-81
2023/05/07 08:40:38;;;;;;;4.55;2.15;;;;;;;26.34;46.81;98188.88;4440924;32;20081;-81
2023/05/07 08:43:06;;;;;;;3.40;1.80;;;;;;;25.66;46.86;98184.47;4440789;32;20097;-81
2023/05/07 08:45:34;;;;;;;4.65;1.90;;;;;;;25.10;48.47;98188.41;4440245;32;20094;-81
2023/05/07 08:48:03;;;;;;;3.20;1.77;;;;;;;26.03;46.03;98186.78;4440699;32;20096;-81
2023/05/07 08:50:30;;;;;;;4.32;1.92;;;;;;;27.31;42.76;98183.69;4427044;32;20408;-81
2023/05/07 08:52:57;;;;;;;4.20;1.60;;;;;;;28.33;39.12;98187.37;4440386;32;20123;-81
2023/05/07 08:55:24;;;;;;;3.53;1.83;;;;;;;28.15;37.01;98184.94;4440749;32;20120;-81
2023/05/07 08:57:52;;;;;;;2.87;1.60;;;;;;;28.34;38.20;98188.19;4440421;32;20118;-80
2023/05/07 09:00:19;;;;;;;3.50;1.50;;;;;;;26.40;41.34;98188.28;4440734;32;20086;-81
2023/05/07 09:02:46;;;;;;;2.95;1.70;;;;;;;27.96;39.98;98185.34;4440598;32;20144;-81
2023/05/07 09:05:14;;;;;;;4.53;1.70;;;;;;;28.42;38.45;98182.84;4440304;32;20436;-81
2023/05/07 09:07:41;;;;;;;4.00;1.50;;;;;;;28.27;37.63;98190.69;4440502;32;20078;-81
2023/05/07 09:10:08;;;;;;;3.12;1.50;;;;;;;27.39;40.15;98199.56;4440607;32;20493;-81
2023/05/07 09:12:36;;;;;;;3.90;1.80;;;;;;;27.46;41.38;98196.25;4440211;32;20455;-81
2023/05/07 09:15:03;;;;;;;2.95;1.70;;;;;;;27.29;40.50;98195.44;4440562;32;20112;-81
2023/05/07 09:17:30;;;;;;;3.80;1.90;;;;;;;28.31;39.51;98188.56;4440585;32;20085;-81
2023/05/07 09:20:03;;;;;;;2.28;1.55;;;;;;;27.61;40.81;98197.22;4440165;32;20170;-81
2023/05/07 09:22:35;;;;;;;3.95;1.73;;;;;;;27.44;38.47;98188.50;4440563;32;20115;-81
2023/05/07 09:25:02;;;;;;;2.15;1.35;;;;;;;27.27;39.17;98186.84;4426634;32;20093;-81
2023/05/07 09:27:30;;;;;;;3.90;1.80;;;;;;;27.44;37.88;98188.50;4426129;32;20112;-81
2023/05/07 09:29:57;;;;;;;2.80;1.60;;;;;;;28.25;38.52;98187.37;4440463;32;20158;-81
2023/05/07 09:32:25;;;;;;;3.00;1.70;;;;;;;28.81;36.13;98186.22;4440382;32;20108;-81
2023/05/07 09:34:52;;;;;;;5.25;1.55;;;;;;;29.61;35.50;98196.34;4426330;32;20106;-81
2023/05/07 09:37:19;;;;;;;3.83;1.42;;;;;;;28.99;35.65;98183.28;4440369;32;20100;-82
2023/05/07 09:39:48;;;;;;;3.83;1.50;;;;;;;28.40;37.18;98185.69;4440312;32;20107;-81
2023/05/07 09:42:15;;;;;;;2.33;1.60;;;;;;;28.52;37.23;98192.25;4426129;32;20462;-81
2023/05/07 09:44:45;;;;;;;2.65;1.52;;;;;;;29.08;35.92;98190.19;4440064;32;20098;-81
2023/05/07 09:47:18;;;;;;;3.75;1.70;;;;;;;28.07;36.85;98189.44;4425635;32;20097;-81
2023/05/07 09:49:49;;;;;;;3.25;1.75;;;;;;;26.98;38.68;98189.97;4440283;32;20086;-81
2023/05/07 09:52:17;;;;;;;2.75;1.65;;;;;;;26.06;43.78;98183.03;4440223;32;20115;-81
2023/05/07 09:54:45;;;;;;;4.10;1.70;;;;;;;26.57;41.18;98184.66;4439797;32;20093;-81
2023/05/07 09:57:12;;;;;;;2.50;1.73;;;;;;;26.59;42.62;98190.62;4426495;32;20416;-82
2023/05/07 09:59:42;;;;;;;3.17;1.55;;;;;;;27.11;40.67;98190.31;4426351;32;20099;-82
2023/05/07 10:02:10;;;;;;;3.30;1.60;;;;;;;28.01;36.74;98185.69;4439618;32;20448;-82
2023/05/07 10:04:37;;;;;;;3.28;1.70;;;;;;;27.50;38.97;98193.09;4440041;32;20081;-81
2023/05/07 10:07:04;;;;;;;2.80;1.55;;;;;;;26.16;42.78;98189.00;4426152;32;20157;-81
2023/05/07 10:09:32;;;;;;;3.47;1.87;;;;;;;25.04;42.54;98189.84;4425784;32;20077;-81
2023/05/07 10:11:59;;;;;;;3.28;1.67;;;;;;;24.81;45.72;98186.81;4440011;32;20115;-81
2023/05/07 10:14:28;;;;;;;4.30;1.90;;;;;;;24.57;45.91;98188.41;4439887;32;20105;-81
2023/05/07 10:16:55;;;;;;;4.03;1.90;;;;;;;25.52;44.57;98185.88;4439473;32;20428;-81
2023/05/07 10:19:22;;;;;;;3.75;1.80;;;;;;;25.28;45.90;98190.97;4439853;32;20081;-81
2023/05/07 10:21:56;;;;;;;3.33;1.60;;;;;;;25.58;45.55;98192.34;4425901;32;20139;-81
2023/05/07 10:24:31;;;;;;;3.35;1.50;;;;;;;25.98;41.97;98185.63;4439515;32;20160;-81
2023/05/07 10:26:59;;;;;;;3.10;1.58;;;;;;;26.64;40.77;98184.84;4439756;32;20100;-81
2023/05/07 10:29:51;;;;;;;2.50;1.75;;;;;;;26.76;40.33;98187.00;4425478;32;20447;-81
2023/05/07 10:32:40;;;;;;;2.22;1.40;;;;;;;27.23;39.52;98182.91;4439635;32;20097;-82
2023/05/07 10:35:12;;;;;;;3.47;1.60;;;;;;;26.80;39.92;98183.03;4425871;32;20731;-81
2023/05/07 10:37:39;;;;;;;3.58;1.70;;;;;;;25.98;40.61;98178.53;4439291;32;20108;-81
2023/05/07 10:40:07;;;;;;;3.33;1.67;;;;;;;25.08;45.64;98177.16;4425649;32;20443;-81
2023/05/07 10:42:34;;;;;;;2.65;1.73;;;;;;;24.50;48.25;98177.63;4425562;32;20109;-81
2023/05/07 10:45:15;;;;;;;3.97;1.95;;;;;;;25.77;44.90;98180.75;4425081;32;20430;-81
2023/05/07 10:48:15;;;;;;;3.67;1.95;;;;;;;25.77;45.80;98181.56;4439384;32;20096;-81
2023/05/07 10:51:18;;;;;;;4.72;1.70;;;;;;;25.41;50.23;98180.81;4404069;32;20131;-81
2023/05/07 10:53:45;;;;;;;3.17;1.77;;;;;;;24.13;50.20;98169.75;4439258;32;20419;-81
2023/05/07 10:56:18;;;;;;;4.25;2.05;;;;;;;24.72;47.97;98174.53;4439245;32;20155;-81
2023/05/07 10:58:45;;;;;;;3.87;1.90;;;;;;;25.11;48.55;98176.03;4438848;32;20528;-81
2023/05/07 11:01:14;;;;;;;4.10;2.08;;;;;;;24.20;51.01;98170.84;4441167;32;20073;-81
2023/05/07 11:04:15;;;;;;;5.05;1.87;;;;;;;24.97;49.30;98178.19;4441381;32;20551;-81
2023/05/07 11:06:42;;;;;;;4.82;2.45;;;;;;;24.50;48.70;98177.63;4441544;32;20116;-81
2023/05/07 11:09:09;;;;;;;5.65;2.15;;;;;;;23.87;49.56;98182.81;4427400;32;20104;-81
2023/05/07 11:11:46;;;;;;;4.65;2.30;;;;;;;23.57;51.54;98178.59;4427328;32;20077;-81
2023/05/07 11:14:16;;;;;;;3.80;1.92;;;;;;;24.15;49.66;98176.56;4441407;32;20097;-81
2023/05/07 11:16:43;;;;;;;3.95;2.03;;;;;;;25.40;45.44;98189.75;4427491;32;20106;-81
2023/05/07 11:19:10;;;;;;;4.03;2.12;;;;;;;24.50;45.82;98180.25;4440932;32;20108;-81
2023/05/07 11:21:38;;;;;;;4.53;2.15;;;;;;;24.94;45.87;98185.59;4441380;32;20095;-81
2023/05/07 11:24:06;;;;;;;3.70;1.70;;;;;;;24.81;47.76;98184.16;4427461;32;20101;-81
2023/05/07 11:26:45;;;;;;;3.92;1.90;;;;;;;24.70;47.17;98188.84;4440988;32;20089;-81
2023/05/07 11:29:19;;;;;;;4.78;2.30;;;;;;;24.24;47.40;98190.66;4441318;32;20357;-81
2023/05/07 11:31:52;;;;;;;4.15;1.95;;;;;;;23.83;49.56;98184.09;4427744;32;20115;-81
2023/05/07 11:34:24;;;;;;;4.97;1.90;;;;;;;23.78;50.05;98184.50;4441084;32;20093;-81